createdAt,value
2023-01-27T00:00:01.912Z,4
2023-01-27T00:15:01.642Z,4.01
2023-01-27T00:30:02.339Z,3.96
2023-01-27T00:45:02.026Z,4
2023-01-27T01:00:01.690Z,4.01
2023-01-27T01:15:02.355Z,4.14
2023-01-27T01:30:02.021Z,4.18
2023-01-27T01:45:01.680Z,4.16
2023-01-27T02:00:02.288Z,4.1
2023-01-27T02:15:01.909Z,4.08
2023-01-27T02:30:01.624Z,4.24
2023-01-27T02:45:02.253Z,4.09
2023-01-27T03:00:01.929Z,4.06
2023-01-27T03:15:01.597Z,4.17
2023-01-27T03:30:02.324Z,4.04
2023-01-27T03:45:01.996Z,4.07
2023-01-27T04:00:01.723Z,3.96
2023-01-27T04:15:02.410Z,3.92
2023-01-27T04:30:02.255Z,3.94
2023-01-27T04:45:01.980Z,3.98
2023-01-27T05:00:01.653Z,4.18
2023-01-27T05:15:02.337Z,3.97
2023-01-27T05:30:02.642Z,3.88
2023-01-27T05:45:02.314Z,4.06
2023-01-27T06:00:01.971Z,3.97
2023-01-27T06:15:01.650Z,4.02
2023-01-27T06:30:02.317Z,4.18
2023-01-27T06:45:01.956Z,4.24
2023-01-27T07:00:01.570Z,4.24
2023-01-27T07:15:02.221Z,4.29
2023-01-27T07:30:01.909Z,4.33
2023-01-27T07:45:02.529Z,4.21
2023-01-27T08:00:02.184Z,4.28
2023-01-27T08:15:01.853Z,4.44
2023-01-27T08:30:02.561Z,4.3
2023-01-27T08:45:02.295Z,4.29
2023-01-27T09:00:01.916Z,4.48
2023-01-27T09:15:02.570Z,4.59
2023-01-27T09:30:02.289Z,4.64
2023-01-27T09:45:02.000Z,4.65
2023-01-27T10:00:01.746Z,4.72
2023-01-27T10:15:02.417Z,5.02
2023-01-27T10:30:02.150Z,5.16
2023-01-27T10:45:01.855Z,5.13
2023-01-27T11:00:33.973Z,5.16
2023-01-27T11:15:02.098Z,5.29
2023-01-27T11:30:01.841Z,5.41
2023-01-27T11:45:02.529Z,5.44
2023-01-27T12:00:02.157Z,5.32
2023-01-27T12:15:01.857Z,5.4
2023-01-27T12:30:02.530Z,5.45
2023-01-27T12:45:02.166Z,5.42
2023-01-27T13:00:01.806Z,5.53
2023-01-27T13:15:02.553Z,5.54
2023-01-27T13:30:02.332Z,5.35
2023-01-27T13:45:01.927Z,5.41
2023-01-27T14:00:01.569Z,5.38
2023-01-27T14:15:02.243Z,5.37
2023-01-27T14:30:01.912Z,5.34
2023-01-27T14:45:03.772Z,5.35
2023-01-27T15:00:01.877Z,5.15
2023-01-27T15:15:02.559Z,5.28
2023-01-27T15:30:02.331Z,5.13
2023-01-27T15:45:02.092Z,5.13
2023-01-27T16:00:01.732Z,5.04
2023-01-27T16:15:02.405Z,4.94
2023-01-27T16:30:02.116Z,5.02
2023-01-27T16:45:01.786Z,4.9
2023-01-27T17:00:02.472Z,4.89
2023-01-27T17:15:02.083Z,4.65
2023-01-27T17:30:01.740Z,4.73
2023-01-27T17:45:02.434Z,4.65
2023-01-27T18:00:02.068Z,4.55
2023-01-27T18:15:01.740Z,4.35
2023-01-27T18:30:02.480Z,4.43
2023-01-27T18:45:02.131Z,4.21
2023-01-27T19:00:01.759Z,4.05
2023-01-27T19:15:02.405Z,4.14
2023-01-27T19:30:02.116Z,4.04
2023-01-27T19:45:01.824Z,4.01
2023-01-27T20:00:02.503Z,4.05
2023-01-27T20:15:02.167Z,3.95
2023-01-27T20:30:01.890Z,3.95
2023-01-27T20:45:02.567Z,3.93
2023-01-27T21:00:02.269Z,3.73
2023-01-27T21:15:01.975Z,3.94
2023-01-27T21:30:01.772Z,3.72
2023-01-27T21:45:02.472Z,3.42
2023-01-27T22:00:02.115Z,3.47
2023-01-27T22:15:01.770Z,3.44
2023-01-27T22:30:02.451Z,3.17
2023-01-27T22:45:02.105Z,3.3
2023-01-27T23:00:01.783Z,3.13
2023-01-27T23:15:02.470Z,3.18
2023-01-27T23:30:02.179Z,2.93
2023-01-27T23:45:01.829Z,3.06
